sensor_id;sensor_type;location;lat;lon;timestamp;P1;durP1;ratioP1;P2;durP2;ratioP2
18021;SDS011;9136;48.822;7.966;2023-03-01T00:00:07;22.30;;;21.30;;
18021;SDS011;9136;48.822;7.966;2023-03-01T00:02:55;24.33;;;23.00;;
18021;SDS011;9136;48.822;7.966;2023-03-01T00:05:44;24.77;;;23.60;;
18021;SDS011;9136;48.822;7.966;2023-03-01T00:08:33;25.37;;;24.17;;
18021;SDS011;9136;48.822;7.966;2023-03-01T00:11:25;20.87;;;19.90;;
18021;SDS011;9136;48.822;7.966;2023-03-01T00:14:14;23.90;;;22.53;;
18021;SDS011;9136;48.822;7.966;2023-03-01T00:17:03;22.70;;;21.60;;
18021;SDS011;9136;48.822;7.966;2023-03-01T00:19:51;22.70;;;21.60;;
18021;SDS011;9136;48.822;7.966;2023-03-01T00:22:38;24.80;;;23.47;;
18021;SDS011;9136;48.822;7.966;2023-03-01T00:25:26;24.17;;;23.07;;
18021;SDS011;9136;48.822;7.966;2023-03-01T00:28:16;26.37;;;25.07;;
18021;SDS011;9136;48.822;7.966;2023-03-01T00:31:04;22.03;;;21.03;;
18021;SDS011;9136;48.822;7.966;2023-03-01T00:33:52;21.17;;;20.17;;
18021;SDS011;9136;48.822;7.966;2023-03-01T00:36:43;20.90;;;19.90;;
18021;SDS011;9136;48.822;7.966;2023-03-01T00:39:31;26.10;;;23.40;;
18021;SDS011;9136;48.822;7.966;2023-03-01T00:42:19;22.00;;;20.90;;
18021;SDS011;9136;48.822;7.966;2023-03-01T00:45:10;22.83;;;21.83;;
18021;SDS011;9136;48.822;7.966;2023-03-01T00:47:59;24.73;;;23.53;;
18021;SDS011;9136;48.822;7.966;2023-03-01T00:50:47;25.83;;;24.50;;
18021;SDS011;9136;48.822;7.966;2023-03-01T00:53:35;24.03;;;22.83;;
18021;SDS011;9136;48.822;7.966;2023-03-01T00:56:23;27.00;;;25.63;;
18021;SDS011;9136;48.822;7.966;2023-03-01T00:59:11;25.30;;;24.07;;
18021;SDS011;9136;48.822;7.966;2023-03-01T01:02:00;25.43;;;23.97;;
18021;SDS011;9136;48.822;7.966;2023-03-01T01:04:48;29.17;;;27.77;;
18021;SDS011;9136;48.822;7.966;2023-03-01T01:07:36;24.40;;;23.00;;
18021;SDS011;9136;48.822;7.966;2023-03-01T01:10:25;23.33;;;22.23;;
18021;SDS011;9136;48.822;7.966;2023-03-01T01:13:13;24.87;;;23.67;;
18021;SDS011;9136;48.822;7.966;2023-03-01T01:16:01;25.53;;;24.37;;
18021;SDS011;9136;48.822;7.966;2023-03-01T01:18:51;25.83;;;24.63;;
18021;SDS011;9136;48.822;7.966;2023-03-01T01:21:39;24.93;;;23.50;;
18021;SDS011;9136;48.822;7.966;2023-03-01T01:24:29;27.63;;;26.20;;
18021;SDS011;9136;48.822;7.966;2023-03-01T01:27:16;23.57;;;22.47;;
18021;SDS011;9136;48.822;7.966;2023-03-01T01:30:05;26.13;;;24.83;;
18021;SDS011;9136;48.822;7.966;2023-03-01T01:32:53;24.60;;;23.33;;
18021;SDS011;9136;48.822;7.966;2023-03-01T01:35:44;23.77;;;22.67;;
18021;SDS011;9136;48.822;7.966;2023-03-01T01:38:32;23.47;;;22.37;;
18021;SDS011;9136;48.822;7.966;2023-03-01T01:41:21;23.60;;;22.50;;
18021;SDS011;9136;48.822;7.966;2023-03-01T01:44:10;22.80;;;21.70;;
18021;SDS011;9136;48.822;7.966;2023-03-01T01:47:02;25.13;;;23.87;;
18021;SDS011;9136;48.822;7.966;2023-03-01T01:49:53;24.53;;;23.13;;
18021;SDS011;9136;48.822;7.966;2023-03-01T01:52:44;25.57;;;24.27;;
18021;SDS011;9136;48.822;7.966;2023-03-01T01:55:35;24.40;;;23.17;;
18021;SDS011;9136;48.822;7.966;2023-03-01T01:58:28;25.77;;;24.57;;
18021;SDS011;9136;48.822;7.966;2023-03-01T02:01:17;25.87;;;24.43;;
18021;SDS011;9136;48.822;7.966;2023-03-01T02:04:05;23.13;;;21.87;;
18021;SDS011;9136;48.822;7.966;2023-03-01T02:06:55;23.20;;;22.10;;
18021;SDS011;9136;48.822;7.966;2023-03-01T02:09:51;27.67;;;26.23;;
18021;SDS011;9136;48.822;7.966;2023-03-01T02:12:40;24.70;;;23.53;;
18021;SDS011;9136;48.822;7.966;2023-03-01T02:15:31;25.33;;;23.27;;
18021;SDS011;9136;48.822;7.966;2023-03-01T02:18:21;23.43;;;22.40;;
18021;SDS011;9136;48.822;7.966;2023-03-01T02:21:13;22.87;;;21.77;;
18021;SDS011;9136;48.822;7.966;2023-03-01T02:24:17;23.10;;;21.57;;
18021;SDS011;9136;48.822;7.966;2023-03-01T02:27:16;24.73;;;23.57;;
18021;SDS011;9136;48.822;7.966;2023-03-01T02:30:12;23.50;;;22.40;;
18021;SDS011;9136;48.822;7.966;2023-03-01T02:33:00;25.87;;;24.67;;
18021;SDS011;9136;48.822;7.966;2023-03-01T02:35:50;26.40;;;24.90;;
18021;SDS011;9136;48.822;7.966;2023-03-01T02:38:40;24.30;;;23.20;;
18021;SDS011;9136;48.822;7.966;2023-03-01T02:41:30;24.40;;;23.27;;
18021;SDS011;9136;48.822;7.966;2023-03-01T02:44:22;25.17;;;23.53;;
18021;SDS011;9136;48.822;7.966;2023-03-01T02:47:11;22.63;;;21.53;;
18021;SDS011;9136;48.822;7.966;2023-03-01T02:49:59;28.20;;;26.50;;
18021;SDS011;9136;48.822;7.966;2023-03-01T02:52:46;23.27;;;22.20;;
18021;SDS011;9136;48.822;7.966;2023-03-01T02:55:45;24.00;;;22.80;;
18021;SDS011;9136;48.822;7.966;2023-03-01T02:58:33;22.83;;;21.73;;
18021;SDS011;9136;48.822;7.966;2023-03-01T03:01:31;21.53;;;20.33;;
18021;SDS011;9136;48.822;7.966;2023-03-01T03:04:25;24.43;;;23.30;;
18021;SDS011;9136;48.822;7.966;2023-03-01T03:07:12;23.90;;;22.73;;
18021;SDS011;9136;48.822;7.966;2023-03-01T03:10:00;21.87;;;20.77;;
18021;SDS011;9136;48.822;7.966;2023-03-01T03:12:49;23.43;;;22.33;;
18021;SDS011;9136;48.822;7.966;2023-03-01T03:15:38;24.67;;;23.33;;
18021;SDS011;9136;48.822;7.966;2023-03-01T03:18:26;22.93;;;21.87;;
18021;SDS011;9136;48.822;7.966;2023-03-01T03:21:16;24.23;;;23.13;;
18021;SDS011;9136;48.822;7.966;2023-03-01T03:24:05;25.53;;;24.23;;
18021;SDS011;9136;48.822;7.966;2023-03-01T03:26:53;22.67;;;21.47;;
18021;SDS011;9136;48.822;7.966;2023-03-01T03:29:40;23.57;;;22.43;;
18021;SDS011;9136;48.822;7.966;2023-03-01T03:32:29;23.83;;;22.73;;
18021;SDS011;9136;48.822;7.966;2023-03-01T03:35:18;24.23;;;23.00;;
18021;SDS011;9136;48.822;7.966;2023-03-01T03:38:09;22.87;;;21.53;;
18021;SDS011;9136;48.822;7.966;2023-03-01T03:41:03;27.00;;;25.33;;
18021;SDS011;9136;48.822;7.966;2023-03-01T03:43:53;23.80;;;22.73;;
18021;SDS011;9136;48.822;7.966;2023-03-01T03:46:41;26.47;;;25.23;;
18021;SDS011;9136;48.822;7.966;2023-03-01T03:49:28;23.53;;;22.43;;
18021;SDS011;9136;48.822;7.966;2023-03-01T03:52:16;25.87;;;24.37;;
18021;SDS011;9136;48.822;7.966;2023-03-01T03:55:07;22.97;;;21.90;;
18021;SDS011;9136;48.822;7.966;2023-03-01T03:57:57;24.43;;;23.27;;
18021;SDS011;9136;48.822;7.966;2023-03-01T04:00:50;24.23;;;22.77;;
18021;SDS011;9136;48.822;7.966;2023-03-01T04:03:39;24.03;;;22.93;;
18021;SDS011;9136;48.822;7.966;2023-03-01T04:06:32;26.63;;;25.33;;
18021;SDS011;9136;48.822;7.966;2023-03-01T04:09:20;23.93;;;22.83;;
18021;SDS011;9136;48.822;7.966;2023-03-01T04:12:09;21.03;;;20.10;;
18021;SDS011;9136;48.822;7.966;2023-03-01T04:14:57;22.17;;;21.10;;
18021;SDS011;9136;48.822;7.966;2023-03-01T04:17:46;26.07;;;24.67;;
18021;SDS011;9136;48.822;7.966;2023-03-01T04:20:34;24.10;;;22.90;;
18021;SDS011;9136;48.822;7.966;2023-03-01T04:23:23;27.77;;;26.27;;
18021;SDS011;9136;48.822;7.966;2023-03-01T04:26:11;25.90;;;24.57;;
18021;SDS011;9136;48.822;7.966;2023-03-01T04:29:00;26.57;;;25.17;;
18021;SDS011;9136;48.822;7.966;2023-03-01T04:31:49;25.53;;;24.20;;
18021;SDS011;9136;48.822;7.966;2023-03-01T04:34:37;25.90;;;24.50;;
18021;SDS011;9136;48.822;7.966;2023-03-01T04:37:25;25.43;;;24.00;;
18021;SDS011;9136;48.822;7.966;2023-03-01T04:40:13;25.10;;;23.80;;
18021;SDS011;9136;48.822;7.966;2023-03-01T04:43:03;26.27;;;24.97;;
18021;SDS011;9136;48.822;7.966;2023-03-01T04:45:52;23.57;;;22.03;;
18021;SDS011;9136;48.822;7.966;2023-03-01T04:48:41;24.87;;;23.57;;
18021;SDS011;9136;48.822;7.966;2023-03-01T04:51:29;26.00;;;24.70;;
18021;SDS011;9136;48.822;7.966;2023-03-01T04:54:19;24.27;;;22.67;;
18021;SDS011;9136;48.822;7.966;2023-03-01T04:57:06;27.70;;;26.33;;
18021;SDS011;9136;48.822;7.966;2023-03-01T04:59:55;24.00;;;22.80;;
18021;SDS011;9136;48.822;7.966;2023-03-01T05:02:45;22.83;;;21.53;;
18021;SDS011;9136;48.822;7.966;2023-03-01T05:05:34;28.80;;;27.40;;
18021;SDS011;9136;48.822;7.966;2023-03-01T05:08:24;23.60;;;22.27;;
18021;SDS011;9136;48.822;7.966;2023-03-01T05:11:12;25.40;;;24.13;;
18021;SDS011;9136;48.822;7.966;2023-03-01T05:14:00;23.47;;;22.43;;
18021;SDS011;9136;48.822;7.966;2023-03-01T05:16:48;26.77;;;25.27;;
18021;SDS011;9136;48.822;7.966;2023-03-01T05:19:37;25.23;;;23.90;;
18021;SDS011;9136;48.822;7.966;2023-03-01T05:22:28;26.47;;;25.17;;
18021;SDS011;9136;48.822;7.966;2023-03-01T05:25:16;25.03;;;23.70;;
18021;SDS011;9136;48.822;7.966;2023-03-01T05:28:04;23.93;;;22.63;;
18021;SDS011;9136;48.822;7.966;2023-03-01T05:30:53;25.07;;;23.70;;
18021;SDS011;9136;48.822;7.966;2023-03-01T05:33:41;24.97;;;23.87;;
18021;SDS011;9136;48.822;7.966;2023-03-01T05:36:31;31.07;;;28.50;;
18021;SDS011;9136;48.822;7.966;2023-03-01T05:39:20;23.90;;;22.70;;
18021;SDS011;9136;48.822;7.966;2023-03-01T05:42:09;28.07;;;26.57;;
18021;SDS011;9136;48.822;7.966;2023-03-01T05:44:58;26.33;;;25.13;;
18021;SDS011;9136;48.822;7.966;2023-03-01T05:47:46;27.37;;;26.00;;
18021;SDS011;9136;48.822;7.966;2023-03-01T05:50:36;25.50;;;24.00;;
18021;SDS011;9136;48.822;7.966;2023-03-01T05:53:27;27.13;;;25.70;;
18021;SDS011;9136;48.822;7.966;2023-03-01T05:56:15;27.43;;;25.93;;
18021;SDS011;9136;48.822;7.966;2023-03-01T05:59:03;25.80;;;24.47;;
18021;SDS011;9136;48.822;7.966;2023-03-01T06:01:52;25.57;;;24.37;;
18021;SDS011;9136;48.822;7.966;2023-03-01T06:04:40;27.30;;;26.00;;
18021;SDS011;9136;48.822;7.966;2023-03-01T06:07:28;23.73;;;22.63;;
18021;SDS011;9136;48.822;7.966;2023-03-01T06:10:17;25.80;;;24.60;;
18021;SDS011;9136;48.822;7.966;2023-03-01T06:13:07;27.53;;;26.23;;
18021;SDS011;9136;48.822;7.966;2023-03-01T06:15:55;25.87;;;24.67;;
18021;SDS011;9136;48.822;7.966;2023-03-01T06:18:43;27.47;;;26.03;;
18021;SDS011;9136;48.822;7.966;2023-03-01T06:21:30;24.93;;;23.57;;
18021;SDS011;9136;48.822;7.966;2023-03-01T06:24:18;27.90;;;26.50;;
18021;SDS011;9136;48.822;7.966;2023-03-01T06:27:08;29.40;;;27.93;;
18021;SDS011;9136;48.822;7.966;2023-03-01T06:29:56;29.63;;;28.13;;
18021;SDS011;9136;48.822;7.966;2023-03-01T06:32:44;25.07;;;23.87;;
18021;SDS011;9136;48.822;7.966;2023-03-01T06:35:32;24.07;;;22.93;;
18021;SDS011;9136;48.822;7.966;2023-03-01T06:38:20;27.13;;;25.77;;
18021;SDS011;9136;48.822;7.966;2023-03-01T06:41:09;28.77;;;26.70;;
18021;SDS011;9136;48.822;7.966;2023-03-01T06:43:59;27.93;;;26.23;;
18021;SDS011;9136;48.822;7.966;2023-03-01T06:46:48;27.33;;;26.03;;
18021;SDS011;9136;48.822;7.966;2023-03-01T06:49:36;26.27;;;24.97;;
18021;SDS011;9136;48.822;7.966;2023-03-01T06:52:24;25.70;;;24.40;;
18021;SDS011;9136;48.822;7.966;2023-03-01T06:55:12;28.73;;;27.30;;
18021;SDS011;9136;48.822;7.966;2023-03-01T06:58:00;28.60;;;26.70;;
18021;SDS011;9136;48.822;7.966;2023-03-01T07:00:50;26.20;;;24.83;;
18021;SDS011;9136;48.822;7.966;2023-03-01T07:03:38;29.63;;;28.13;;
18021;SDS011;9136;48.822;7.966;2023-03-01T07:06:26;26.10;;;24.87;;
18021;SDS011;9136;48.822;7.966;2023-03-01T07:09:14;28.90;;;27.20;;
18021;SDS011;9136;48.822;7.966;2023-03-01T07:12:05;25.60;;;24.30;;
18021;SDS011;9136;48.822;7.966;2023-03-01T07:14:53;23.97;;;22.77;;
18021;SDS011;9136;48.822;7.966;2023-03-01T07:17:43;25.57;;;24.27;;
18021;SDS011;9136;48.822;7.966;2023-03-01T07:20:33;28.97;;;27.60;;
18021;SDS011;9136;48.822;7.966;2023-03-01T07:23:22;25.23;;;24.07;;
18021;SDS011;9136;48.822;7.966;2023-03-01T07:26:10;23.53;;;22.33;;
18021;SDS011;9136;48.822;7.966;2023-03-01T07:28:58;26.17;;;24.77;;
18021;SDS011;9136;48.822;7.966;2023-03-01T07:31:46;25.73;;;24.47;;
18021;SDS011;9136;48.822;7.966;2023-03-01T07:34:35;25.33;;;24.10;;
18021;SDS011;9136;48.822;7.966;2023-03-01T07:37:23;25.90;;;24.67;;
18021;SDS011;9136;48.822;7.966;2023-03-01T07:40:11;24.60;;;23.37;;
18021;SDS011;9136;48.822;7.966;2023-03-01T07:43:00;25.83;;;24.33;;
18021;SDS011;9136;48.822;7.966;2023-03-01T07:45:48;26.43;;;24.63;;
18021;SDS011;9136;48.822;7.966;2023-03-01T07:48:36;26.37;;;25.17;;
18021;SDS011;9136;48.822;7.966;2023-03-01T07:51:25;25.33;;;23.73;;
18021;SDS011;9136;48.822;7.966;2023-03-01T07:54:13;26.33;;;24.80;;
18021;SDS011;9136;48.822;7.966;2023-03-01T07:57:01;24.23;;;23.03;;
18021;SDS011;9136;48.822;7.966;2023-03-01T07:59:49;24.70;;;23.30;;
18021;SDS011;9136;48.822;7.966;2023-03-01T08:02:37;25.73;;;24.33;;
18021;SDS011;9136;48.822;7.966;2023-03-01T08:05:26;25.00;;;23.63;;
18021;SDS011;9136;48.822;7.966;2023-03-01T08:08:16;27.83;;;26.00;;
18021;SDS011;9136;48.822;7.966;2023-03-01T08:11:05;26.30;;;25.10;;
18021;SDS011;9136;48.822;7.966;2023-03-01T08:13:53;25.80;;;24.43;;
18021;SDS011;9136;48.822;7.966;2023-03-01T08:16:42;26.93;;;25.53;;
18021;SDS011;9136;48.822;7.966;2023-03-01T08:19:30;25.77;;;24.37;;
18021;SDS011;9136;48.822;7.966;2023-03-01T08:22:19;24.53;;;23.17;;
18021;SDS011;9136;48.822;7.966;2023-03-01T08:25:09;26.10;;;24.90;;
18021;SDS011;9136;48.822;7.966;2023-03-01T08:27:57;25.07;;;23.77;;
18021;SDS011;9136;48.822;7.966;2023-03-01T08:30:44;25.77;;;24.57;;
18021;SDS011;9136;48.822;7.966;2023-03-01T08:33:32;23.43;;;22.17;;
18021;SDS011;9136;48.822;7.966;2023-03-01T08:36:21;25.90;;;24.50;;
18021;SDS011;9136;48.822;7.966;2023-03-01T08:39:11;23.33;;;22.13;;
18021;SDS011;9136;48.822;7.966;2023-03-01T08:42:01;25.90;;;24.50;;
18021;SDS011;9136;48.822;7.966;2023-03-01T08:44:49;24.13;;;22.90;;
18021;SDS011;9136;48.822;7.966;2023-03-01T08:47:37;22.17;;;21.00;;
18021;SDS011;9136;48.822;7.966;2023-03-01T08:50:25;20.40;;;19.47;;
18021;SDS011;9136;48.822;7.966;2023-03-01T08:53:13;23.90;;;22.70;;
18021;SDS011;9136;48.822;7.966;2023-03-01T08:56:01;22.23;;;21.13;;
18021;SDS011;9136;48.822;7.966;2023-03-01T08:58:51;20.10;;;19.10;;
18021;SDS011;9136;48.822;7.966;2023-03-01T09:01:38;32.97;;;22.97;;
18021;SDS011;9136;48.822;7.966;2023-03-01T09:04:29;26.00;;;24.63;;
18021;SDS011;9136;48.822;7.966;2023-03-01T09:07:17;25.23;;;23.93;;
18021;SDS011;9136;48.822;7.966;2023-03-01T09:10:05;25.70;;;24.40;;
18021;SDS011;9136;48.822;7.966;2023-03-01T09:12:54;23.13;;;21.80;;
18021;SDS011;9136;48.822;7.966;2023-03-01T09:15:43;22.63;;;21.53;;
18021;SDS011;9136;48.822;7.966;2023-03-01T09:18:31;21.30;;;20.20;;
18021;SDS011;9136;48.822;7.966;2023-03-01T09:21:21;24.03;;;22.83;;
18021;SDS011;9136;48.822;7.966;2023-03-01T09:24:11;23.10;;;22.00;;
18021;SDS011;9136;48.822;7.966;2023-03-01T09:27:01;23.60;;;22.40;;
18021;SDS011;9136;48.822;7.966;2023-03-01T09:29:49;24.77;;;23.67;;
18021;SDS011;9136;48.822;7.966;2023-03-01T09:32:38;21.10;;;20.10;;
18021;SDS011;9136;48.822;7.966;2023-03-01T09:35:28;22.37;;;21.30;;
18021;SDS011;9136;48.822;7.966;2023-03-01T09:38:16;20.33;;;19.43;;
18021;SDS011;9136;48.822;7.966;2023-03-01T09:41:08;24.27;;;23.00;;
18021;SDS011;9136;48.822;7.966;2023-03-01T09:43:59;25.37;;;23.63;;
18021;SDS011;9136;48.822;7.966;2023-03-01T09:46:50;23.33;;;22.13;;
18021;SDS011;9136;48.822;7.966;2023-03-01T09:49:40;24.67;;;23.47;;
18021;SDS011;9136;48.822;7.966;2023-03-01T09:52:36;21.47;;;20.50;;
18021;SDS011;9136;48.822;7.966;2023-03-01T09:55:29;22.93;;;21.83;;
18021;SDS011;9136;48.822;7.966;2023-03-01T09:58:41;23.13;;;21.83;;
18021;SDS011;9136;48.822;7.966;2023-03-01T10:01:40;19.77;;;18.77;;
18021;SDS011;9136;48.822;7.966;2023-03-01T10:04:44;22.43;;;21.37;;
18021;SDS011;9136;48.822;7.966;2023-03-01T10:07:36;29.83;;;28.33;;
18021;SDS011;9136;48.822;7.966;2023-03-01T10:10:31;24.30;;;22.80;;
18021;SDS011;9136;48.822;7.966;2023-03-01T10:13:23;30.70;;;29.27;;
18021;SDS011;9136;48.822;7.966;2023-03-01T10:16:17;21.17;;;20.27;;
18021;SDS011;9136;48.822;7.966;2023-03-01T10:19:11;20.33;;;19.43;;
18021;SDS011;9136;48.822;7.966;2023-03-01T10:22:16;30.33;;;28.83;;
18021;SDS011;9136;48.822;7.966;2023-03-01T10:25:08;21.40;;;20.43;;
18021;SDS011;9136;48.822;7.966;2023-03-01T10:28:01;30.07;;;28.70;;
18021;SDS011;9136;48.822;7.966;2023-03-01T10:30:54;20.67;;;19.57;;
18021;SDS011;9136;48.822;7.966;2023-03-01T10:33:42;22.67;;;21.63;;
18021;SDS011;9136;48.822;7.966;2023-03-01T10:36:37;20.13;;;19.13;;
18021;SDS011;9136;48.822;7.966;2023-03-01T10:39:28;17.87;;;17.00;;
18021;SDS011;9136;48.822;7.966;2023-03-01T10:42:19;17.97;;;17.17;;
18021;SDS011;9136;48.822;7.966;2023-03-01T10:45:16;20.73;;;19.83;;
18021;SDS011;9136;48.822;7.966;2023-03-01T10:48:14;21.23;;;20.23;;
18021;SDS011;9136;48.822;7.966;2023-03-01T10:51:05;17.80;;;17.00;;
18021;SDS011;9136;48.822;7.966;2023-03-01T10:53:54;21.67;;;20.67;;
18021;SDS011;9136;48.822;7.966;2023-03-01T10:59:51;21.70;;;20.70;;
18021;SDS011;9136;48.822;7.966;2023-03-01T11:03:02;20.93;;;19.93;;
18021;SDS011;9136;48.822;7.966;2023-03-01T11:05:59;20.87;;;19.87;;
18021;SDS011;9136;48.822;7.966;2023-03-01T11:08:49;20.23;;;19.33;;
18021;SDS011;9136;48.822;7.966;2023-03-01T11:11:37;19.80;;;18.90;;
18021;SDS011;9136;48.822;7.966;2023-03-01T11:14:27;18.13;;;17.33;;
18021;SDS011;9136;48.822;7.966;2023-03-01T11:17:21;20.97;;;19.87;;
18021;SDS011;9136;48.822;7.966;2023-03-01T11:20:15;20.93;;;19.77;;
18021;SDS011;9136;48.822;7.966;2023-03-01T11:23:12;20.33;;;19.33;;
18021;SDS011;9136;48.822;7.966;2023-03-01T11:26:02;19.00;;;18.10;;
18021;SDS011;9136;48.822;7.966;2023-03-01T11:28:54;19.77;;;18.87;;
18021;SDS011;9136;48.822;7.966;2023-03-01T11:31:47;19.67;;;18.67;;
18021;SDS011;9136;48.822;7.966;2023-03-01T11:34:38;20.20;;;19.20;;
18021;SDS011;9136;48.822;7.966;2023-03-01T11:37:32;18.87;;;17.90;;
18021;SDS011;9136;48.822;7.966;2023-03-01T11:40:24;18.43;;;17.57;;
18021;SDS011;9136;48.822;7.966;2023-03-01T11:43:17;20.93;;;19.60;;
18021;SDS011;9136;48.822;7.966;2023-03-01T11:53:16;16.20;;;15.40;;
18021;SDS011;9136;48.822;7.966;2023-03-01T11:56:18;18.40;;;17.50;;
18021;SDS011;9136;48.822;7.966;2023-03-01T12:06:12;21.33;;;20.23;;
18021;SDS011;9136;48.822;7.966;2023-03-01T12:09:27;19.30;;;18.30;;
18021;SDS011;9136;48.822;7.966;2023-03-01T12:12:27;18.70;;;17.70;;
18021;SDS011;9136;48.822;7.966;2023-03-01T12:15:28;21.40;;;20.27;;
18021;SDS011;9136;48.822;7.966;2023-03-01T12:18:41;20.63;;;19.53;;
18021;SDS011;9136;48.822;7.966;2023-03-01T12:21:52;18.13;;;17.10;;
18021;SDS011;9136;48.822;7.966;2023-03-01T12:25:04;19.20;;;18.20;;
18021;SDS011;9136;48.822;7.966;2023-03-01T12:28:18;20.10;;;18.70;;
18021;SDS011;9136;48.822;7.966;2023-03-01T12:31:41;18.80;;;17.80;;
18021;SDS011;9136;48.822;7.966;2023-03-01T12:34:46;21.53;;;20.33;;
18021;SDS011;9136;48.822;7.966;2023-03-01T12:37:48;20.53;;;19.53;;
18021;SDS011;9136;48.822;7.966;2023-03-01T12:44:35;22.53;;;21.03;;
18021;SDS011;9136;48.822;7.966;2023-03-01T12:47:41;20.53;;;19.43;;
18021;SDS011;9136;48.822;7.966;2023-03-01T12:50:40;20.50;;;18.87;;
18021;SDS011;9136;48.822;7.966;2023-03-01T12:53:32;19.73;;;18.37;;
18021;SDS011;9136;48.822;7.966;2023-03-01T12:56:24;17.20;;;16.30;;
18021;SDS011;9136;48.822;7.966;2023-03-01T12:59:15;19.27;;;18.07;;
18021;SDS011;9136;48.822;7.966;2023-03-01T13:02:10;22.67;;;20.57;;
18021;SDS011;9136;48.822;7.966;2023-03-01T13:05:10;18.27;;;17.37;;
18021;SDS011;9136;48.822;7.966;2023-03-01T13:08:13;22.77;;;20.70;;
18021;SDS011;9136;48.822;7.966;2023-03-01T13:11:14;19.73;;;18.70;;
18021;SDS011;9136;48.822;7.966;2023-03-01T13:17:41;17.97;;;16.97;;
18021;SDS011;9136;48.822;7.966;2023-03-01T13:20:45;17.90;;;16.90;;
18021;SDS011;9136;48.822;7.966;2023-03-01T13:23:34;19.17;;;18.20;;
18021;SDS011;9136;48.822;7.966;2023-03-01T13:26:25;17.97;;;17.07;;
18021;SDS011;9136;48.822;7.966;2023-03-01T13:29:25;18.73;;;17.73;;
18021;SDS011;9136;48.822;7.966;2023-03-01T13:32:20;18.83;;;17.83;;
18021;SDS011;9136;48.822;7.966;2023-03-01T13:38:37;20.43;;;19.50;;
18021;SDS011;9136;48.822;7.966;2023-03-01T13:41:52;20.63;;;19.53;;
18021;SDS011;9136;48.822;7.966;2023-03-01T13:44:41;19.60;;;18.60;;
18021;SDS011;9136;48.822;7.966;2023-03-01T13:47:30;17.50;;;16.50;;
18021;SDS011;9136;48.822;7.966;2023-03-01T13:50:22;21.33;;;19.77;;
18021;SDS011;9136;48.822;7.966;2023-03-01T13:53:14;18.33;;;17.43;;
18021;SDS011;9136;48.822;7.966;2023-03-01T13:56:07;18.27;;;17.30;;
18021;SDS011;9136;48.822;7.966;2023-03-01T13:58:59;19.33;;;18.17;;
18021;SDS011;9136;48.822;7.966;2023-03-01T14:01:53;19.70;;;18.70;;
18021;SDS011;9136;48.822;7.966;2023-03-01T14:04:42;19.70;;;18.60;;
18021;SDS011;9136;48.822;7.966;2023-03-01T14:07:29;19.80;;;18.80;;
18021;SDS011;9136;48.822;7.966;2023-03-01T14:10:17;20.77;;;19.60;;
18021;SDS011;9136;48.822;7.966;2023-03-01T14:13:08;17.67;;;16.77;;
18021;SDS011;9136;48.822;7.966;2023-03-01T14:16:16;20.33;;;19.30;;
18021;SDS011;9136;48.822;7.966;2023-03-01T14:19:15;19.50;;;18.50;;
18021;SDS011;9136;48.822;7.966;2023-03-01T14:22:16;21.50;;;20.13;;
18021;SDS011;9136;48.822;7.966;2023-03-01T14:28:14;18.17;;;17.37;;
18021;SDS011;9136;48.822;7.966;2023-03-01T14:31:25;21.40;;;20.30;;
18021;SDS011;9136;48.822;7.966;2023-03-01T14:34:20;18.63;;;17.60;;
18021;SDS011;9136;48.822;7.966;2023-03-01T14:37:09;22.67;;;21.27;;
18021;SDS011;9136;48.822;7.966;2023-03-01T14:39:58;20.63;;;19.53;;
18021;SDS011;9136;48.822;7.966;2023-03-01T14:42:48;18.50;;;17.70;;
18021;SDS011;9136;48.822;7.966;2023-03-01T14:45:36;21.37;;;20.03;;
18021;SDS011;9136;48.822;7.966;2023-03-01T14:48:26;21.43;;;20.33;;
18021;SDS011;9136;48.822;7.966;2023-03-01T14:51:15;21.17;;;20.10;;
18021;SDS011;9136;48.822;7.966;2023-03-01T14:54:04;22.13;;;21.10;;
18021;SDS011;9136;48.822;7.966;2023-03-01T14:57:06;22.20;;;21.03;;
18021;SDS011;9136;48.822;7.966;2023-03-01T15:00:02;20.50;;;19.23;;
18021;SDS011;9136;48.822;7.966;2023-03-01T15:02:54;20.20;;;19.10;;
18021;SDS011;9136;48.822;7.966;2023-03-01T15:05:45;22.83;;;21.73;;
18021;SDS011;9136;48.822;7.966;2023-03-01T15:08:33;19.47;;;18.47;;
18021;SDS011;9136;48.822;7.966;2023-03-01T15:11:23;19.90;;;18.90;;
18021;SDS011;9136;48.822;7.966;2023-03-01T15:17:35;21.23;;;20.20;;
18021;SDS011;9136;48.822;7.966;2023-03-01T15:20:25;18.47;;;17.63;;
18021;SDS011;9136;48.822;7.966;2023-03-01T15:23:19;18.67;;;17.77;;
18021;SDS011;9136;48.822;7.966;2023-03-01T15:26:19;21.40;;;19.93;;
18021;SDS011;9136;48.822;7.966;2023-03-01T15:29:15;17.73;;;16.93;;
18021;SDS011;9136;48.822;7.966;2023-03-01T15:32:06;22.40;;;21.40;;
18021;SDS011;9136;48.822;7.966;2023-03-01T15:35:37;18.20;;;17.40;;
18021;SDS011;9136;48.822;7.966;2023-03-01T15:38:31;18.90;;;17.97;;
18021;SDS011;9136;48.822;7.966;2023-03-01T15:41:24;20.47;;;19.47;;
18021;SDS011;9136;48.822;7.966;2023-03-01T15:44:14;17.03;;;16.23;;
18021;SDS011;9136;48.822;7.966;2023-03-01T15:47:05;20.00;;;19.03;;
18021;SDS011;9136;48.822;7.966;2023-03-01T15:50:12;18.30;;;17.50;;
18021;SDS011;9136;48.822;7.966;2023-03-01T15:53:05;21.07;;;20.03;;
18021;SDS011;9136;48.822;7.966;2023-03-01T15:55:58;18.53;;;17.63;;
18021;SDS011;9136;48.822;7.966;2023-03-01T15:58:46;19.07;;;18.07;;
18021;SDS011;9136;48.822;7.966;2023-03-01T16:01:33;22.63;;;21.50;;
18021;SDS011;9136;48.822;7.966;2023-03-01T16:04:21;19.70;;;18.60;;
18021;SDS011;9136;48.822;7.966;2023-03-01T16:07:09;17.83;;;16.83;;
18021;SDS011;9136;48.822;7.966;2023-03-01T16:09:57;19.63;;;18.60;;
18021;SDS011;9136;48.822;7.966;2023-03-01T16:12:49;22.33;;;21.17;;
18021;SDS011;9136;48.822;7.966;2023-03-01T16:15:37;19.70;;;18.70;;
18021;SDS011;9136;48.822;7.966;2023-03-01T16:18:26;20.37;;;19.27;;
18021;SDS011;9136;48.822;7.966;2023-03-01T16:21:20;20.50;;;19.50;;
18021;SDS011;9136;48.822;7.966;2023-03-01T16:24:09;18.13;;;17.33;;
18021;SDS011;9136;48.822;7.966;2023-03-01T16:26:57;22.40;;;21.30;;
18021;SDS011;9136;48.822;7.966;2023-03-01T16:29:46;20.37;;;19.37;;
18021;SDS011;9136;48.822;7.966;2023-03-01T16:32:37;19.53;;;18.53;;
18021;SDS011;9136;48.822;7.966;2023-03-01T16:35:25;19.43;;;18.53;;
18021;SDS011;9136;48.822;7.966;2023-03-01T16:38:12;20.10;;;18.93;;
18021;SDS011;9136;48.822;7.966;2023-03-01T16:41:00;21.10;;;20.10;;
18021;SDS011;9136;48.822;7.966;2023-03-01T16:43:48;20.17;;;19.20;;
18021;SDS011;9136;48.822;7.966;2023-03-01T16:46:38;21.90;;;20.90;;
18021;SDS011;9136;48.822;7.966;2023-03-01T16:49:29;19.87;;;18.97;;
18021;SDS011;9136;48.822;7.966;2023-03-01T16:52:16;19.60;;;18.60;;
18021;SDS011;9136;48.822;7.966;2023-03-01T16:55:05;20.03;;;19.07;;
18021;SDS011;9136;48.822;7.966;2023-03-01T16:57:55;20.30;;;19.30;;
18021;SDS011;9136;48.822;7.966;2023-03-01T17:00:43;20.93;;;19.93;;
18021;SDS011;9136;48.822;7.966;2023-03-01T17:03:32;20.73;;;19.73;;
18021;SDS011;9136;48.822;7.966;2023-03-01T17:06:20;21.13;;;20.13;;
18021;SDS011;9136;48.822;7.966;2023-03-01T17:09:10;23.67;;;22.47;;
18021;SDS011;9136;48.822;7.966;2023-03-01T17:11:58;22.43;;;21.13;;
18021;SDS011;9136;48.822;7.966;2023-03-01T17:14:46;20.37;;;19.37;;
18021;SDS011;9136;48.822;7.966;2023-03-01T17:17:34;25.13;;;23.70;;
18021;SDS011;9136;48.822;7.966;2023-03-01T17:20:23;24.87;;;23.67;;
18021;SDS011;9136;48.822;7.966;2023-03-01T17:23:11;24.23;;;22.90;;
18021;SDS011;9136;48.822;7.966;2023-03-01T17:25:59;25.20;;;23.80;;
18021;SDS011;9136;48.822;7.966;2023-03-01T17:28:47;23.63;;;22.53;;